Terminal Aerodrome Forecast
Issued by NWS

Home | Current Version | Previous Version | Text Only | Print | Product List | Glossary On
Versions: 1 2 3 4 5 6 7 8 9 10 11 12 13 14
000
FTUS46 KPDT 281720
TAFBDN
TAF
KBDN 281720Z 2818/2918 VRB03KT P6SM SKC
     FM282100 34009KT P6SM FEW090
     FM290400 29006KT P6SM SCT110
     FM291000 20005KT P6SM FEW150=

USA.gov is the U.S. government's official web portal to all federal, state and local government web resources and services.